createdAt,value
2018-07-16T00:00:11.639Z,6.93
2018-07-16T00:02:39.855Z,6.80
2018-07-16T00:05:08.148Z,8.47
2018-07-16T00:07:36.333Z,6.87
2018-07-16T00:10:04.491Z,6.47
2018-07-16T00:12:32.651Z,8.67
2018-07-16T00:15:00.807Z,5.57
2018-07-16T00:17:29.038Z,7.30
2018-07-16T00:19:57.182Z,6.10
2018-07-16T00:22:25.607Z,6.50
2018-07-16T00:24:53.782Z,6.60
2018-07-16T00:27:21.961Z,5.20
2018-07-16T00:29:50.487Z,6.40
2018-07-16T00:32:18.688Z,8.03
2018-07-16T00:34:46.854Z,6.10
2018-07-16T00:37:15.228Z,7.77
2018-07-16T00:39:43.488Z,5.90
2018-07-16T00:42:11.770Z,7.63
2018-07-16T00:44:39.980Z,5.33
2018-07-16T00:47:08.335Z,6.80
2018-07-16T00:49:36.911Z,9.30
2018-07-16T00:52:05.108Z,6.73
2018-07-16T00:54:33.294Z,6.27
2018-07-16T00:57:01.803Z,7.03
2018-07-16T00:59:29.995Z,5.97
2018-07-16T01:01:58.190Z,6.07
2018-07-16T01:04:26.374Z,5.80
2018-07-16T01:06:54.542Z,6.03
2018-07-16T01:09:22.711Z,7.13
2018-07-16T01:11:50.870Z,6.07
2018-07-16T01:14:19.047Z,5.30
2018-07-16T01:16:47.235Z,5.57
2018-07-16T01:19:15.406Z,7.23
2018-07-16T01:21:43.565Z,5.73
2018-07-16T01:24:11.734Z,6.73
2018-07-16T01:26:39.658Z,5.70
2018-07-16T01:29:07.855Z,6.90
2018-07-16T01:31:36.029Z,4.83
2018-07-16T01:34:04.191Z,6.00
2018-07-16T01:36:32.343Z,4.30
2018-07-16T01:39:00.775Z,5.57
2018-07-16T01:41:28.935Z,4.10
2018-07-16T01:43:57.094Z,4.33
2018-07-16T01:46:25.242Z,5.43
2018-07-16T01:48:53.401Z,3.97
2018-07-16T01:51:21.590Z,3.80
2018-07-16T01:53:49.797Z,5.40
2018-07-16T01:56:17.964Z,4.13
2018-07-16T01:58:46.119Z,5.47
2018-07-16T02:01:14.275Z,4.67
2018-07-16T02:03:42.722Z,4.77
2018-07-16T02:06:10.870Z,5.20
2018-07-16T02:08:39.030Z,5.37
2018-07-16T02:11:07.174Z,4.30
2018-07-16T02:13:35.326Z,4.23
2018-07-16T02:16:03.483Z,3.90
2018-07-16T02:18:31.637Z,4.67
2018-07-16T02:20:59.799Z,3.93
2018-07-16T02:23:27.719Z,4.00
2018-07-16T02:25:55.892Z,4.73
2018-07-16T02:28:24.109Z,4.77
2018-07-16T02:30:52.280Z,3.93
2018-07-16T02:33:20.448Z,4.60
2018-07-16T02:35:48.598Z,4.10
2018-07-16T02:38:16.979Z,4.10
2018-07-16T02:40:45.138Z,5.47
2018-07-16T02:43:13.290Z,4.67
2018-07-16T02:45:41.446Z,4.27
2018-07-16T02:48:09.607Z,5.53
2018-07-16T02:50:37.761Z,4.73
2018-07-16T02:53:06.094Z,4.60
2018-07-16T02:55:34.266Z,3.40
2018-07-16T02:58:03.440Z,4.30
2018-07-16T03:00:31.606Z,4.00
2018-07-16T03:02:59.543Z,5.10
2018-07-16T03:05:27.785Z,4.00
2018-07-16T03:07:55.951Z,3.70
2018-07-16T03:10:24.135Z,5.50
2018-07-16T03:12:52.282Z,4.27
2018-07-16T03:15:20.447Z,5.43
2018-07-16T03:17:48.634Z,4.47
2018-07-16T03:20:16.799Z,5.53
2018-07-16T03:22:44.946Z,4.77
2018-07-16T03:25:13.102Z,5.10
2018-07-16T03:27:41.242Z,4.43
2018-07-16T03:30:09.415Z,5.77
2018-07-16T03:32:37.571Z,3.70
2018-07-16T03:35:05.731Z,4.07
2018-07-16T03:37:33.879Z,4.27
2018-07-16T03:40:02.082Z,4.73
2018-07-16T03:42:30.263Z,3.57
2018-07-16T03:44:58.444Z,4.40
2018-07-16T03:47:26.595Z,3.83
2018-07-16T03:49:54.758Z,4.97
2018-07-16T03:52:23.182Z,4.43
2018-07-16T03:54:51.338Z,4.40
2018-07-16T03:57:19.485Z,3.67
2018-07-16T03:59:47.643Z,4.87
2018-07-16T04:02:15.801Z,3.40
2018-07-16T04:04:43.978Z,4.80
2018-07-16T04:07:11.949Z,3.43
2018-07-16T04:09:40.139Z,4.50
2018-07-16T04:12:08.612Z,3.57
2018-07-16T04:14:36.824Z,4.00
2018-07-16T04:17:05.060Z,3.73
2018-07-16T04:19:33.012Z,3.17
2018-07-16T04:22:01.203Z,3.27
2018-07-16T04:24:29.382Z,3.50
2018-07-16T04:26:57.566Z,3.03
2018-07-16T04:29:25.744Z,3.77
2018-07-16T04:31:54.027Z,3.47
2018-07-16T04:34:22.478Z,3.30
2018-07-16T04:36:50.660Z,2.93
2018-07-16T04:39:18.834Z,2.77
2018-07-16T04:41:47.026Z,3.40
2018-07-16T04:44:15.210Z,3.07
2018-07-16T04:46:43.410Z,3.90
2018-07-16T04:49:11.600Z,2.80
2018-07-16T04:51:39.837Z,2.40
2018-07-16T04:54:08.040Z,2.97
2018-07-16T04:56:36.239Z,3.43
2018-07-16T04:59:04.771Z,4.10
2018-07-16T05:01:33.217Z,2.67
2018-07-16T05:04:01.396Z,3.67
2018-07-16T05:06:29.583Z,3.10
2018-07-16T05:08:58.019Z,3.50
2018-07-16T05:11:26.517Z,3.57
2018-07-16T05:13:54.694Z,3.23
2018-07-16T05:16:22.888Z,2.87
2018-07-16T05:18:51.435Z,4.07
2018-07-16T05:21:19.636Z,3.07
2018-07-16T05:23:47.839Z,4.07
2018-07-16T05:26:16.088Z,3.57
2018-07-16T05:28:44.805Z,3.50
2018-07-16T05:31:12.989Z,4.20
2018-07-16T05:33:41.182Z,3.83
2018-07-16T05:36:09.367Z,3.80
2018-07-16T05:38:37.545Z,4.27
2018-07-16T05:41:05.871Z,4.93
2018-07-16T05:43:34.053Z,3.93
2018-07-16T05:46:02.243Z,4.40
2018-07-16T05:48:30.423Z,3.70
2018-07-16T05:50:58.911Z,5.10
2018-07-16T05:53:27.114Z,4.07
2018-07-16T05:55:55.298Z,3.83
2018-07-16T05:58:23.818Z,3.70
2018-07-16T06:00:51.972Z,5.10
2018-07-16T06:03:20.182Z,3.93
2018-07-16T06:05:48.371Z,4.43
2018-07-16T06:08:16.792Z,4.57
2018-07-16T06:10:44.982Z,5.73
2018-07-16T06:13:13.496Z,4.40
2018-07-16T06:15:41.690Z,4.70
2018-07-16T06:18:10.151Z,4.87
2018-07-16T06:20:38.563Z,4.43
2018-07-16T06:23:06.750Z,5.03
2018-07-16T06:25:34.967Z,3.87
2018-07-16T06:28:03.254Z,4.27
2018-07-16T06:30:31.710Z,4.57
2018-07-16T06:33:00.147Z,4.70
2018-07-16T06:35:28.335Z,6.53
2018-07-16T06:37:56.520Z,4.87
2018-07-16T06:40:24.881Z,5.50
2018-07-16T06:42:53.338Z,4.87
2018-07-16T06:45:21.564Z,4.70
2018-07-16T06:47:49.804Z,4.50
2018-07-16T06:50:17.927Z,4.83
2018-07-16T06:52:46.290Z,6.00
2018-07-16T06:55:14.497Z,4.70
2018-07-16T06:57:42.690Z,4.57
2018-07-16T07:00:10.873Z,6.70
2018-07-16T07:02:39.293Z,4.50
2018-07-16T07:05:07.473Z,4.50
2018-07-16T07:07:35.942Z,4.73
2018-07-16T07:10:04.791Z,5.37
2018-07-16T07:12:32.943Z,5.87
2018-07-16T07:15:01.146Z,5.33
2018-07-16T07:17:29.334Z,4.80
2018-07-16T07:19:57.525Z,6.10
2018-07-16T07:22:25.776Z,5.90
2018-07-16T07:24:53.973Z,5.30
2018-07-16T07:27:22.270Z,5.50
2018-07-16T07:29:50.642Z,6.00
2018-07-16T07:32:18.844Z,5.80
2018-07-16T07:34:47.039Z,5.53
2018-07-16T07:37:15.415Z,6.17
2018-07-16T07:39:43.594Z,6.47
2018-07-16T07:42:11.779Z,4.40
2018-07-16T07:44:39.995Z,5.27
2018-07-16T07:47:08.471Z,5.00
2018-07-16T07:49:36.683Z,6.47
2018-07-16T07:52:04.867Z,4.50
2018-07-16T07:54:33.275Z,4.00
2018-07-16T07:57:01.395Z,4.77
2018-07-16T07:59:29.587Z,4.33
2018-07-16T08:01:57.838Z,3.97
2018-07-16T08:04:26.080Z,4.03
2018-07-16T08:06:59.778Z,5.60
2018-07-16T08:09:27.973Z,4.90
2018-07-16T08:11:56.202Z,4.90
2018-07-16T08:14:24.391Z,4.53
2018-07-16T08:16:52.587Z,4.43
2018-07-16T08:19:20.835Z,5.57
2018-07-16T08:21:49.043Z,6.50
2018-07-16T08:24:17.231Z,5.33
2018-07-16T08:26:45.410Z,4.17
2018-07-16T08:29:13.618Z,4.77
2018-07-16T08:31:41.807Z,4.43
2018-07-16T08:34:10.001Z,4.53
2018-07-16T08:36:38.203Z,3.80
2018-07-16T08:39:06.654Z,3.97
2018-07-16T08:41:34.986Z,3.80
2018-07-16T08:44:03.488Z,4.40
2018-07-16T08:46:31.956Z,3.80
2018-07-16T08:49:00.372Z,3.63
2018-07-16T08:51:28.595Z,3.60
2018-07-16T08:53:56.823Z,3.30
2018-07-16T08:56:25.141Z,3.43
2018-07-16T08:58:53.322Z,3.70
2018-07-16T09:01:21.503Z,4.07
2018-07-16T09:03:49.946Z,3.43
2018-07-16T09:06:18.118Z,3.47
2018-07-16T09:08:46.287Z,3.23
2018-07-16T09:11:14.472Z,3.10
2018-07-16T09:13:42.599Z,3.20
2018-07-16T09:16:10.768Z,3.30
2018-07-16T09:18:38.921Z,3.77
2018-07-16T09:21:07.107Z,3.10
2018-07-16T09:23:35.329Z,3.17
2018-07-16T09:26:03.472Z,3.10
2018-07-16T09:28:31.651Z,3.30
2018-07-16T09:30:59.880Z,3.27
2018-07-16T09:33:27.873Z,3.30
2018-07-16T09:35:56.302Z,2.33
2018-07-16T09:38:24.459Z,3.20
2018-07-16T09:40:52.642Z,2.67
2018-07-16T09:43:20.799Z,2.77
2018-07-16T09:45:48.960Z,3.23
2018-07-16T09:48:17.170Z,2.87
2018-07-16T09:50:45.437Z,3.47
2018-07-16T09:53:13.846Z,2.70
2018-07-16T09:55:42.316Z,2.90
2018-07-16T09:58:10.479Z,2.30
2018-07-16T10:00:39.899Z,3.60
2018-07-16T10:03:08.462Z,2.50
2018-07-16T10:05:36.693Z,2.30
2018-07-16T10:08:05.395Z,2.37
2018-07-16T10:10:33.594Z,2.40
2018-07-16T10:13:01.787Z,2.10
2018-07-16T10:15:29.947Z,2.73
2018-07-16T10:17:58.111Z,2.33
2018-07-16T10:20:26.286Z,2.30
2018-07-16T10:22:54.947Z,1.90
2018-07-16T10:25:23.191Z,1.80
2018-07-16T10:27:51.420Z,2.27
2018-07-16T10:30:19.846Z,2.47
2018-07-16T10:32:48.023Z,2.07
2018-07-16T10:35:16.303Z,2.97
2018-07-16T10:37:44.456Z,2.70
2018-07-16T10:40:12.624Z,2.30
2018-07-16T10:42:41.015Z,2.47
2018-07-16T10:45:09.223Z,1.67
2018-07-16T10:47:37.389Z,1.93
2018-07-16T10:50:05.546Z,1.70
2018-07-16T10:52:33.729Z,1.70
2018-07-16T10:55:02.013Z,2.10
2018-07-16T10:57:30.215Z,1.40
2018-07-16T10:59:58.383Z,1.30
2018-07-16T11:02:26.572Z,1.87
2018-07-16T11:04:54.727Z,2.17
2018-07-16T11:07:22.907Z,1.90
2018-07-16T11:09:51.092Z,2.40
2018-07-16T11:12:19.249Z,2.00
2018-07-16T11:14:47.440Z,1.90
2018-07-16T11:17:15.593Z,1.63
2018-07-16T11:19:43.770Z,1.67
2018-07-16T11:22:11.959Z,1.60
2018-07-16T11:24:40.135Z,1.10
2018-07-16T11:27:08.357Z,1.40
2018-07-16T11:29:37.568Z,1.20
2018-07-16T11:32:05.775Z,1.30
2018-07-16T11:34:34.007Z,1.30
2018-07-16T11:37:02.194Z,1.70
2018-07-16T11:39:30.360Z,1.47
2018-07-16T11:41:58.556Z,1.50
2018-07-16T11:44:26.716Z,1.53
2018-07-16T11:46:54.906Z,1.60
2018-07-16T11:49:23.141Z,1.10
2018-07-16T11:51:51.410Z,1.50
2018-07-16T11:54:19.603Z,2.27
2018-07-16T11:56:47.762Z,1.30
2018-07-16T11:59:15.927Z,1.20
2018-07-16T12:01:44.228Z,1.63
2018-07-16T12:04:12.371Z,1.00
2018-07-16T12:06:40.543Z,1.53
2018-07-16T12:09:09.059Z,1.40
2018-07-16T12:11:37.270Z,1.20
2018-07-16T12:14:05.598Z,1.27
2018-07-16T12:16:33.791Z,1.30
2018-07-16T12:19:01.978Z,1.33
2018-07-16T12:21:30.206Z,1.10
2018-07-16T12:23:58.399Z,1.23
2018-07-16T12:26:26.578Z,1.20
2018-07-16T12:28:54.759Z,1.03
2018-07-16T12:31:22.955Z,1.67
2018-07-16T12:33:51.138Z,1.30
2018-07-16T12:36:19.375Z,1.83
2018-07-16T12:38:47.583Z,1.93
2018-07-16T12:41:15.804Z,1.20
2018-07-16T12:43:44.023Z,1.10
2018-07-16T12:46:12.310Z,1.40
2018-07-16T12:48:40.890Z,1.20
2018-07-16T12:51:09.077Z,1.40
2018-07-16T12:53:37.495Z,1.07
2018-07-16T12:56:05.834Z,1.17
2018-07-16T12:58:34.043Z,1.27
2018-07-16T13:01:02.225Z,1.20
2018-07-16T13:03:30.848Z,1.27
2018-07-16T13:05:59.066Z,1.23
2018-07-16T13:08:27.227Z,4.63
2018-07-16T13:10:55.521Z,1.80
2018-07-16T13:13:23.744Z,1.40
2018-07-16T13:15:52.412Z,1.37
2018-07-16T13:18:20.556Z,1.60
2018-07-16T13:20:48.751Z,1.40
2018-07-16T13:23:16.978Z,1.50
2018-07-16T13:25:45.162Z,1.60
2018-07-16T13:28:13.355Z,1.00
2018-07-16T13:30:41.551Z,1.10
2018-07-16T13:33:09.928Z,1.40
2018-07-16T13:35:38.106Z,1.00
2018-07-16T13:38:06.319Z,1.07
2018-07-16T13:40:34.512Z,1.10
2018-07-16T13:43:02.732Z,1.43
2018-07-16T13:45:30.919Z,1.20
2018-07-16T13:47:59.138Z,1.40
2018-07-16T13:50:27.312Z,1.20
2018-07-16T13:52:55.279Z,1.27
2018-07-16T13:55:23.492Z,1.40
2018-07-16T13:57:51.697Z,1.00
2018-07-16T14:00:19.886Z,1.10
2018-07-16T14:02:48.087Z,1.40
2018-07-16T14:05:16.266Z,1.20
2018-07-16T14:07:44.971Z,1.53
2018-07-16T14:10:13.182Z,1.30
2018-07-16T14:12:41.683Z,1.40
2018-07-16T14:15:09.886Z,1.30
2018-07-16T14:17:38.359Z,1.27
2018-07-16T14:20:06.566Z,1.50
2018-07-16T14:22:34.826Z,1.47
2018-07-16T14:25:03.049Z,1.40
2018-07-16T14:27:31.228Z,1.53
2018-07-16T14:29:59.426Z,1.43
2018-07-16T14:32:27.643Z,1.50
2018-07-16T14:34:55.867Z,1.83
2018-07-16T14:37:24.068Z,1.70
2018-07-16T14:39:52.366Z,1.87
2018-07-16T14:42:20.482Z,1.40
2018-07-16T14:44:48.685Z,1.77
2018-07-16T14:47:16.846Z,1.33
2018-07-16T14:49:45.034Z,1.67
2018-07-16T14:52:13.219Z,1.80
2018-07-16T14:54:41.426Z,1.80
2018-07-16T14:57:09.684Z,1.40
2018-07-16T14:59:37.808Z,1.60
2018-07-16T15:02:06.118Z,1.67
2018-07-16T15:04:34.447Z,2.37
2018-07-16T15:07:02.814Z,2.30
2018-07-16T15:09:31.026Z,2.03
2018-07-16T15:11:59.240Z,2.27
2018-07-16T15:14:27.512Z,2.17
2018-07-16T15:16:55.828Z,2.20
2018-07-16T15:19:24.093Z,2.00
2018-07-16T15:21:52.507Z,2.00
2018-07-16T15:24:20.773Z,1.57
2018-07-16T15:26:48.963Z,1.80
2018-07-16T15:29:17.402Z,1.53
2018-07-16T15:31:45.591Z,1.77
2018-07-16T15:34:13.766Z,2.60
2018-07-16T15:36:41.959Z,2.40
2018-07-16T15:39:10.295Z,2.33
2018-07-16T15:41:38.486Z,2.33
2018-07-16T15:44:06.677Z,4.30
2018-07-16T15:46:35.165Z,5.00
2018-07-16T15:49:03.396Z,3.33
2018-07-16T15:51:31.628Z,2.70
2018-07-16T15:53:59.872Z,2.53
2018-07-16T15:56:28.067Z,2.50
2018-07-16T15:58:56.251Z,2.33
2018-07-16T16:01:24.434Z,1.97
2018-07-16T16:03:52.623Z,1.60
2018-07-16T16:06:20.616Z,1.83
2018-07-16T16:08:48.831Z,1.50
2018-07-16T16:11:16.989Z,1.70
2018-07-16T16:13:45.171Z,1.80
2018-07-16T16:16:13.350Z,2.13
2018-07-16T16:18:41.538Z,1.60
2018-07-16T16:21:09.755Z,1.90
2018-07-16T16:23:37.905Z,2.77
2018-07-16T16:26:06.345Z,1.90
2018-07-16T16:28:34.562Z,2.10
2018-07-16T16:31:02.796Z,2.20
2018-07-16T16:33:31.011Z,2.03
2018-07-16T16:35:59.252Z,1.73
2018-07-16T16:38:27.430Z,1.77
2018-07-16T16:40:55.623Z,1.80
2018-07-16T16:43:23.811Z,2.37
2018-07-16T16:45:51.999Z,1.90
2018-07-16T16:48:20.203Z,1.60
2018-07-16T16:50:48.397Z,2.27
2018-07-16T16:53:16.583Z,2.00
2018-07-16T16:55:44.779Z,1.83
2018-07-16T16:58:13.286Z,1.90
2018-07-16T17:00:41.466Z,2.07
2018-07-16T17:03:09.648Z,2.40
2018-07-16T17:05:38.090Z,2.43
2018-07-16T17:08:06.318Z,2.60
2018-07-16T17:10:34.553Z,2.57
2018-07-16T17:13:02.767Z,2.20
2018-07-16T17:15:31.027Z,2.20
2018-07-16T17:17:59.276Z,2.10
2018-07-16T17:20:27.418Z,1.80
2018-07-16T17:22:55.668Z,2.30
2018-07-16T17:25:23.850Z,2.57
2018-07-16T17:27:52.038Z,2.23
2018-07-16T17:30:20.251Z,2.50
2018-07-16T17:32:51.121Z,2.00
2018-07-16T17:35:19.559Z,2.23
2018-07-16T17:37:47.748Z,2.60
2018-07-16T17:40:15.974Z,2.73
2018-07-16T17:42:43.954Z,2.13
2018-07-16T17:45:12.135Z,2.30
2018-07-16T17:47:40.566Z,2.33
2018-07-16T17:50:09.668Z,2.30
2018-07-16T17:52:37.928Z,2.50
2018-07-16T17:55:06.333Z,1.97
2018-07-16T17:57:34.799Z,2.40
2018-07-16T18:00:02.978Z,2.60
2018-07-16T18:02:31.458Z,2.40
2018-07-16T18:04:59.654Z,2.43
2018-07-16T18:07:27.827Z,2.27
2018-07-16T18:09:55.973Z,2.13
2018-07-16T18:12:24.135Z,3.13
2018-07-16T18:14:52.543Z,2.40
2018-07-16T18:17:20.521Z,2.20
2018-07-16T18:19:48.448Z,2.60
2018-07-16T18:22:16.627Z,2.60
2018-07-16T18:24:45.273Z,2.73
2018-07-16T18:27:13.426Z,2.50
2018-07-16T18:29:41.630Z,3.00
2018-07-16T18:32:09.844Z,3.33
2018-07-16T18:34:38.139Z,2.77
2018-07-16T18:37:06.315Z,2.67
2018-07-16T18:39:34.503Z,2.77
2018-07-16T18:42:02.710Z,2.83
2018-07-16T18:44:30.858Z,3.13
2018-07-16T18:46:59.030Z,3.20
2018-07-16T18:49:27.375Z,2.37
2018-07-16T18:51:55.595Z,3.00
2018-07-16T18:54:23.748Z,2.63
2018-07-16T18:56:52.090Z,2.60
2018-07-16T18:59:20.078Z,3.13
2018-07-16T19:01:48.238Z,2.97
2018-07-16T19:04:16.670Z,2.80
2018-07-16T19:06:44.817Z,2.53
2018-07-16T19:09:13.106Z,2.40
2018-07-16T19:11:41.447Z,2.40
2018-07-16T19:14:10.122Z,3.00
2018-07-16T19:16:38.290Z,2.47
2018-07-16T19:19:06.684Z,2.03
2018-07-16T19:21:34.910Z,2.40
2018-07-16T19:24:03.063Z,2.50
2018-07-16T19:26:31.221Z,2.70
2018-07-16T19:28:59.375Z,2.33
2018-07-16T19:31:27.575Z,2.50
2018-07-16T19:33:56.090Z,3.40
2018-07-16T19:36:24.246Z,3.23
2018-07-16T19:38:52.535Z,3.73
2018-07-16T19:41:20.642Z,2.97
2018-07-16T19:43:48.774Z,3.53
2018-07-16T19:46:16.978Z,2.87
2018-07-16T19:48:45.195Z,3.27
2018-07-16T19:51:13.391Z,2.60
2018-07-16T19:53:41.632Z,2.70
2018-07-16T19:56:09.872Z,2.80
2018-07-16T19:58:37.852Z,2.63
2018-07-16T20:01:06.560Z,2.70
2018-07-16T20:03:34.844Z,2.40
2018-07-16T20:06:03.010Z,2.73
2018-07-16T20:08:31.298Z,3.20
2018-07-16T20:10:59.474Z,2.80
2018-07-16T20:13:27.883Z,3.33
2018-07-16T20:15:56.146Z,3.37
2018-07-16T20:18:24.338Z,3.90
2018-07-16T20:20:55.435Z,3.90
2018-07-16T20:23:23.802Z,3.23
2018-07-16T20:25:53.470Z,3.70
2018-07-16T20:28:21.790Z,4.00
2018-07-16T20:30:50.039Z,4.40
2018-07-16T20:33:18.293Z,3.17
2018-07-16T20:35:46.895Z,3.93
2018-07-16T20:38:15.067Z,3.97
2018-07-16T20:40:43.269Z,3.80
2018-07-16T20:43:11.439Z,3.33
2018-07-16T20:45:39.725Z,4.40
2018-07-16T20:48:07.879Z,4.13
2018-07-16T20:50:36.043Z,3.33
2018-07-16T20:53:04.191Z,3.27
2018-07-16T20:55:32.916Z,4.23
2018-07-16T20:58:01.125Z,3.83
2018-07-16T21:00:29.347Z,4.03
2018-07-16T21:02:57.538Z,3.90
2018-07-16T21:05:25.770Z,4.33
2018-07-16T21:07:54.082Z,3.60
2018-07-16T21:10:22.412Z,4.00
2018-07-16T21:12:50.645Z,4.33
2018-07-16T21:15:18.838Z,5.13
2018-07-16T21:17:47.037Z,4.00
2018-07-16T21:20:15.230Z,4.00
2018-07-16T21:22:43.423Z,4.27
2018-07-16T21:25:12.104Z,3.80
2018-07-16T21:27:40.297Z,4.10
2018-07-16T21:30:08.662Z,4.23
2018-07-16T21:32:36.814Z,3.87
2018-07-16T21:35:05.012Z,4.40
2018-07-16T21:37:33.198Z,4.00
2018-07-16T21:40:01.403Z,4.73
2018-07-16T21:42:29.598Z,4.17
2018-07-16T21:44:57.782Z,4.20
2018-07-16T21:47:25.987Z,3.73
2018-07-16T21:49:54.215Z,4.27
2018-07-16T21:52:26.342Z,4.83
2018-07-16T21:54:54.553Z,5.93
2018-07-16T21:57:22.726Z,4.80
2018-07-16T21:59:50.942Z,4.83
2018-07-16T22:02:19.122Z,5.53
2018-07-16T22:04:47.310Z,4.47
2018-07-16T22:07:15.504Z,4.30
2018-07-16T22:09:43.667Z,6.00
2018-07-16T22:12:11.810Z,5.20
2018-07-16T22:14:39.970Z,4.43
2018-07-16T22:17:08.611Z,4.53
2018-07-16T22:19:36.770Z,6.00
2018-07-16T22:22:04.943Z,5.33
2018-07-16T22:24:33.141Z,4.80
2018-07-16T22:27:01.299Z,4.50
2018-07-16T22:29:29.509Z,4.70
2018-07-16T22:31:57.605Z,4.87
2018-07-16T22:34:25.757Z,4.07
2018-07-16T22:36:53.919Z,5.07
2018-07-16T22:39:22.070Z,4.33
2018-07-16T22:41:50.235Z,5.17
2018-07-16T22:44:18.381Z,4.90
2018-07-16T22:46:46.543Z,4.83
2018-07-16T22:49:14.850Z,4.90
2018-07-16T22:51:43.015Z,4.53
2018-07-16T22:54:11.182Z,5.30
2018-07-16T22:56:39.346Z,4.57
2018-07-16T22:59:07.543Z,4.83
2018-07-16T23:01:35.732Z,4.70
2018-07-16T23:04:03.903Z,4.80
2018-07-16T23:06:32.058Z,4.67
2018-07-16T23:09:00.259Z,5.17
2018-07-16T23:11:28.446Z,4.63
2018-07-16T23:13:56.627Z,6.60
2018-07-16T23:16:24.838Z,5.20
2018-07-16T23:18:53.014Z,5.20
2018-07-16T23:21:21.430Z,4.93
2018-07-16T23:23:50.186Z,5.30
2018-07-16T23:26:18.365Z,7.03
2018-07-16T23:28:46.577Z,5.33
2018-07-16T23:31:14.729Z,6.30
2018-07-16T23:33:42.952Z,5.90
2018-07-16T23:36:17.856Z,5.97
2018-07-16T23:38:46.039Z,6.50
2018-07-16T23:41:14.553Z,6.87
2018-07-16T23:43:42.727Z,5.73
2018-07-16T23:46:10.910Z,5.50
2018-07-16T23:48:39.085Z,5.13
2018-07-16T23:51:07.298Z,5.77
2018-07-16T23:53:35.847Z,6.10
2018-07-16T23:56:04.043Z,6.57
2018-07-16T23:58:32.494Z,6.07
